createdAt,value
2023-04-06T00:00:17.514Z,99.99
2023-04-06T00:01:17.503Z,99.99
2023-04-06T00:02:14.532Z,99.99
2023-04-06T00:03:14.511Z,99.99
2023-04-06T00:04:14.510Z,99.99
2023-04-06T00:05:14.468Z,99.99
2023-04-06T00:06:16.057Z,99.99
2023-04-06T00:07:14.425Z,99.99
2023-04-06T00:08:14.409Z,99.99
2023-04-06T00:09:14.402Z,99.99
2023-04-06T00:10:14.382Z,99.99
2023-04-06T00:11:14.363Z,99.99
2023-04-06T00:12:14.425Z,99.99
2023-04-06T00:13:14.342Z,99.99
2023-04-06T00:14:14.336Z,99.99
2023-04-06T00:15:14.327Z,99.99
2023-04-06T00:16:14.347Z,99.99
2023-04-06T00:17:14.297Z,99.99
2023-04-06T00:18:14.333Z,99.99
2023-04-06T00:19:14.274Z,99.99
2023-04-06T00:20:17.287Z,99.99
2023-04-06T00:21:17.230Z,99.99
2023-04-06T00:22:14.271Z,99.99
2023-04-06T00:23:14.210Z,99.99
2023-04-06T00:24:14.281Z,99.99
2023-04-06T00:25:14.179Z,99.99
2023-04-06T00:26:14.167Z,99.99
2023-04-06T00:27:14.149Z,99.99
2023-04-06T00:28:14.185Z,99.99
2023-04-06T00:29:14.123Z,99.99
2023-04-06T00:30:14.174Z,99.99
2023-04-06T00:31:14.095Z,99.99
2023-04-06T00:32:14.168Z,99.99
2023-04-06T00:33:14.138Z,99.99
2023-04-06T00:34:14.061Z,99.99
2023-04-06T00:35:14.054Z,99.99
2023-04-06T00:36:14.133Z,99.99
2023-04-06T00:37:14.054Z,99.99
2023-04-06T00:38:14.013Z,99.99
2023-04-06T00:39:13.991Z,99.99
2023-04-06T00:40:16.983Z,99.99
2023-04-06T00:41:17.016Z,99.99
2023-04-06T00:42:13.995Z,99.99
2023-04-06T00:43:13.947Z,99.99
2023-04-06T00:44:13.928Z,99.99
2023-04-06T00:45:13.910Z,99.99
2023-04-06T00:46:13.936Z,99.99
2023-04-06T00:47:13.953Z,99.99
2023-04-06T00:48:13.876Z,99.99
2023-04-06T00:49:13.863Z,99.99
2023-04-06T00:50:13.878Z,99.99
2023-04-06T00:51:13.852Z,99.99
2023-04-06T00:52:13.816Z,99.99
2023-04-06T00:53:13.837Z,99.99
2023-04-06T00:54:13.809Z,99.99
2023-04-06T00:55:13.843Z,99.99
2023-04-06T00:56:13.824Z,99.99
2023-04-06T00:57:13.765Z,99.99
2023-04-06T00:58:13.744Z,99.99
2023-04-06T00:59:13.789Z,99.99
2023-04-06T01:00:16.717Z,99.99
2023-04-06T01:01:16.797Z,99.99
2023-04-06T01:02:13.687Z,99.99
2023-04-06T01:03:13.739Z,99.99
2023-04-06T01:04:13.670Z,99.99
2023-04-06T01:05:13.679Z,99.99
2023-04-06T01:06:13.672Z,99.99
2023-04-06T01:07:13.665Z,99.99
2023-04-06T01:08:13.614Z,99.99
2023-04-06T01:09:13.606Z,99.99
2023-04-06T01:10:13.600Z,99.99
2023-04-06T01:11:13.580Z,99.99
2023-04-06T01:12:13.606Z,99.99
2023-04-06T01:13:13.545Z,99.99
2023-04-06T01:14:13.565Z,99.99
2023-04-06T01:15:13.527Z,99.99
2023-04-06T01:16:13.513Z,99.99
2023-04-06T01:17:13.489Z,99.99
2023-04-06T01:18:13.559Z,99.99
2023-04-06T01:19:13.502Z,99.99
2023-04-06T01:20:16.470Z,99.99
2023-04-06T01:21:16.477Z,99.99
2023-04-06T01:22:13.429Z,99.99
2023-04-06T01:23:13.409Z,99.99
2023-04-06T01:24:34.453Z,99.99
2023-04-06T01:25:13.397Z,99.99
2023-04-06T01:26:13.370Z,99.99
2023-04-06T01:27:13.367Z,99.99
2023-04-06T01:28:13.343Z,99.99
2023-04-06T01:29:13.355Z,99.99
2023-04-06T01:30:13.376Z,99.99
2023-04-06T01:31:13.330Z,99.99
2023-04-06T01:32:13.292Z,99.99
2023-04-06T01:33:13.306Z,99.99
2023-04-06T01:34:13.260Z,99.99
2023-04-06T01:35:13.252Z,99.99
2023-04-06T01:36:13.285Z,99.99
2023-04-06T01:37:13.246Z,99.99
2023-04-06T01:38:13.213Z,99.99
2023-04-06T01:39:13.203Z,99.99
2023-04-06T01:40:16.191Z,99.99
2023-04-06T01:41:16.243Z,99.99
2023-04-06T01:42:13.156Z,99.99
2023-04-06T01:43:13.155Z,99.99
2023-04-06T01:44:13.133Z,99.99
2023-04-06T01:45:13.123Z,99.99
2023-04-06T01:46:13.228Z,99.99
2023-04-06T01:47:13.135Z,99.99
2023-04-06T01:48:13.080Z,99.99
2023-04-06T01:49:13.075Z,99.99
2023-04-06T01:50:13.067Z,99.99
2023-04-06T01:51:13.054Z,99.99
2023-04-06T01:52:13.028Z,99.99
2023-04-06T01:53:13.046Z,99.99
2023-04-06T01:54:13.011Z,99.99
2023-04-06T01:55:12.985Z,99.99
2023-04-06T01:56:12.981Z,99.99
2023-04-06T01:57:12.964Z,99.99
2023-04-06T01:58:12.945Z,99.99
2023-04-06T01:59:13.027Z,99.99
2023-04-06T02:00:15.917Z,99.99
2023-04-06T02:01:15.970Z,99.99
2023-04-06T02:02:12.917Z,99.99
2023-04-06T02:03:12.946Z,99.99
2023-04-06T02:04:12.883Z,99.99
2023-04-06T02:05:12.905Z,99.99
2023-04-06T02:06:12.835Z,99.99
2023-04-06T02:07:12.828Z,99.99
2023-04-06T02:08:12.822Z,99.99
2023-04-06T02:09:12.812Z,99.99
2023-04-06T02:10:12.820Z,99.99
2023-04-06T02:11:12.825Z,99.99
2023-04-06T02:12:12.762Z,99.99
2023-04-06T02:13:12.749Z,99.99
2023-04-06T02:14:12.758Z,99.99
2023-04-06T02:15:12.731Z,99.99
2023-04-06T02:16:12.822Z,99.99
2023-04-06T02:17:12.739Z,99.99
2023-04-06T02:18:12.696Z,99.99
2023-04-06T02:19:12.680Z,99.99
2023-04-06T02:20:15.652Z,99.99
2023-04-06T02:21:15.649Z,99.99
2023-04-06T02:22:12.637Z,99.99
2023-04-06T02:23:12.651Z,99.99
2023-04-06T02:24:12.602Z,99.99
2023-04-06T02:25:12.592Z,99.99
2023-04-06T02:26:12.603Z,99.99
2023-04-06T02:27:12.581Z,99.99
2023-04-06T02:28:12.572Z,99.99
2023-04-06T02:29:12.627Z,99.99
2023-04-06T02:30:12.536Z,99.99
2023-04-06T02:31:12.515Z,99.99
2023-04-06T02:32:12.523Z,99.99
2023-04-06T02:33:12.502Z,99.99
2023-04-06T02:34:12.473Z,99.99
2023-04-06T02:35:12.502Z,99.99
2023-04-06T02:36:12.463Z,99.99
2023-04-06T02:37:12.441Z,99.99
2023-04-06T02:38:12.420Z,99.99
2023-04-06T02:39:12.418Z,99.99
2023-04-06T02:40:15.466Z,99.99
2023-04-06T02:41:15.388Z,99.99
2023-04-06T02:42:12.370Z,99.99
2023-04-06T02:43:12.360Z,99.99
2023-04-06T02:44:12.338Z,99.99
2023-04-06T02:45:12.334Z,99.99
2023-04-06T02:46:12.390Z,99.99
2023-04-06T02:47:12.308Z,99.99
2023-04-06T02:48:12.293Z,99.99
2023-04-06T02:49:12.282Z,99.99
2023-04-06T02:50:12.279Z,99.99
2023-04-06T02:51:12.262Z,99.99
2023-04-06T02:52:12.292Z,99.99
2023-04-06T02:53:12.220Z,99.99
2023-04-06T02:54:12.218Z,99.99
2023-04-06T02:55:12.202Z,99.99
2023-04-06T02:56:12.181Z,99.99
2023-04-06T02:57:12.178Z,99.99
2023-04-06T02:58:12.229Z,99.99
2023-04-06T02:59:12.351Z,99.99
2023-04-06T03:00:15.131Z,99.99
2023-04-06T03:01:15.161Z,99.99
2023-04-06T03:02:12.126Z,99.99
2023-04-06T03:03:12.179Z,99.99
2023-04-06T03:04:12.133Z,99.99
2023-04-06T03:05:12.071Z,99.99
2023-04-06T03:06:12.061Z,99.99
2023-04-06T03:07:12.042Z,99.99
2023-04-06T03:08:12.081Z,99.99
2023-04-06T03:09:12.027Z,99.99
2023-04-06T03:10:12.053Z,99.99
2023-04-06T03:11:12.012Z,99.99
2023-04-06T03:12:11.991Z,99.99
2023-04-06T03:13:11.975Z,99.99
2023-04-06T03:14:11.945Z,99.99
2023-04-06T03:15:11.940Z,99.99
2023-04-06T03:16:12.041Z,99.99
2023-04-06T03:17:11.906Z,99.99
2023-04-06T03:18:11.916Z,99.99
2023-04-06T03:19:11.892Z,99.99
2023-04-06T03:20:14.878Z,99.99
2023-04-06T03:21:14.936Z,99.99
2023-04-06T03:22:11.836Z,99.99
2023-04-06T03:23:11.841Z,99.99
2023-04-06T03:24:11.812Z,99.99
2023-04-06T03:25:11.820Z,99.99
2023-04-06T03:26:11.785Z,99.99
2023-04-06T03:27:11.829Z,99.99
2023-04-06T03:28:11.767Z,99.99
2023-04-06T03:29:11.757Z,99.99
2023-04-06T03:30:11.743Z,99.99
2023-04-06T03:31:11.834Z,99.99
2023-04-06T03:32:11.747Z,99.99
2023-04-06T03:33:11.779Z,99.99
2023-04-06T03:34:11.676Z,99.99
2023-04-06T03:35:11.663Z,99.99
2023-04-06T03:36:11.664Z,99.99
2023-04-06T03:37:11.636Z,99.99
2023-04-06T03:38:11.619Z,99.99
2023-04-06T03:39:11.683Z,99.99
2023-04-06T03:40:14.609Z,99.99
2023-04-06T03:41:14.590Z,99.99
2023-04-06T03:42:11.572Z,99.99
2023-04-06T03:43:11.555Z,99.99
2023-04-06T03:44:11.554Z,99.99
2023-04-06T03:45:11.579Z,99.99
2023-04-06T03:46:11.567Z,99.99
2023-04-06T03:47:11.525Z,99.99
2023-04-06T03:48:11.493Z,99.99
2023-04-06T03:49:11.476Z,99.99
2023-04-06T03:50:11.471Z,99.99
2023-04-06T03:51:11.482Z,99.99
2023-04-06T03:52:11.436Z,99.99
2023-04-06T03:53:11.442Z,99.99
2023-04-06T03:54:11.428Z,99.99
2023-04-06T03:55:11.393Z,99.99
2023-04-06T03:56:11.377Z,99.99
2023-04-06T03:57:11.521Z,99.99
2023-04-06T03:58:11.396Z,99.99
2023-04-06T03:59:11.594Z,99.99
2023-04-06T04:00:14.325Z,99.99
2023-04-06T04:01:14.312Z,99.99
2023-04-06T04:02:11.346Z,99.99
2023-04-06T04:03:11.521Z,99.99
2023-04-06T04:04:11.277Z,99.99
2023-04-06T04:05:11.274Z,99.99
2023-04-06T04:06:11.267Z,99.99
2023-04-06T04:07:11.233Z,99.99
2023-04-06T04:08:11.216Z,99.99
2023-04-06T04:09:11.330Z,99.99
2023-04-06T04:10:11.189Z,99.99
2023-04-06T04:11:11.163Z,99.99
2023-04-06T04:12:11.157Z,99.99
2023-04-06T04:13:11.167Z,99.99
2023-04-06T04:14:11.124Z,99.99
2023-04-06T04:15:11.152Z,99.99
2023-04-06T04:16:11.208Z,99.99
2023-04-06T04:17:11.096Z,99.99
2023-04-06T04:18:11.085Z,99.99
2023-04-06T04:19:11.182Z,99.99
2023-04-06T04:20:14.105Z,99.99
2023-04-06T04:21:14.037Z,99.99
2023-04-06T04:22:11.041Z,99.99
2023-04-06T04:23:10.998Z,99.99
2023-04-06T04:24:11.041Z,99.99
2023-04-06T04:25:10.980Z,99.99
2023-04-06T04:26:11.083Z,99.99
2023-04-06T04:27:10.950Z,99.99
2023-04-06T04:28:10.962Z,99.99
2023-04-06T04:29:11.049Z,99.99
2023-04-06T04:30:10.921Z,99.99
2023-04-06T04:31:10.920Z,99.99
2023-04-06T04:32:11.039Z,99.99
2023-04-06T04:33:10.865Z,99.99
2023-04-06T04:34:10.892Z,99.99
2023-04-06T04:35:10.847Z,99.99
2023-04-06T04:36:10.835Z,99.99
2023-04-06T04:37:10.826Z,99.99
2023-04-06T04:38:10.868Z,99.99
2023-04-06T04:39:10.869Z,99.99
2023-04-06T04:40:13.773Z,99.99
2023-04-06T04:41:13.776Z,99.99
2023-04-06T04:42:10.769Z,99.99
2023-04-06T04:43:10.736Z,99.99
2023-04-06T04:44:10.776Z,99.99
2023-04-06T04:45:10.711Z,99.99
2023-04-06T04:46:10.716Z,99.99
2023-04-06T04:47:10.678Z,99.99
2023-04-06T04:48:10.685Z,99.99
2023-04-06T04:49:10.830Z,99.99
2023-04-06T04:50:10.716Z,99.99
2023-04-06T04:51:10.625Z,99.99
2023-04-06T04:52:10.628Z,99.99
2023-04-06T04:53:10.597Z,99.99
2023-04-06T04:54:10.588Z,99.99
2023-04-06T04:55:10.577Z,99.99
2023-04-06T04:56:10.621Z,99.99
2023-04-06T04:57:10.542Z,99.99
2023-04-06T04:58:10.534Z,99.99
2023-04-06T04:59:10.803Z,99.99
2023-04-06T05:00:13.528Z,99.99
2023-04-06T05:01:13.588Z,99.99
2023-04-06T05:02:10.578Z,99.99
2023-04-06T05:03:10.562Z,99.99
2023-04-06T05:04:10.454Z,99.99
2023-04-06T05:05:10.464Z,99.99
2023-04-06T05:06:11.578Z,99.99
2023-04-06T05:07:10.489Z,99.99
2023-04-06T05:08:10.406Z,99.99
2023-04-06T05:09:10.589Z,99.99
2023-04-06T05:10:10.381Z,99.99
2023-04-06T05:11:10.360Z,99.99
2023-04-06T05:12:10.358Z,99.99
2023-04-06T05:13:10.528Z,99.99
2023-04-06T05:14:10.395Z,99.99
2023-04-06T05:15:10.417Z,99.99
2023-04-06T05:16:10.406Z,99.99
2023-04-06T05:17:10.297Z,99.99
2023-04-06T05:18:10.371Z,99.99
2023-04-06T05:19:10.551Z,99.99
2023-04-06T05:20:13.250Z,99.99
2023-04-06T05:21:13.248Z,99.99
2023-04-06T05:22:10.215Z,99.99
2023-04-06T05:23:10.206Z,99.99
2023-04-06T05:24:10.197Z,99.99
2023-04-06T05:25:10.245Z,99.99
2023-04-06T05:26:10.187Z,99.99
2023-04-06T05:27:10.147Z,99.99
2023-04-06T05:28:10.178Z,99.99
2023-04-06T05:29:10.438Z,99.99
2023-04-06T05:30:10.109Z,99.99
2023-04-06T05:31:10.193Z,99.99
2023-04-06T05:32:10.092Z,99.99
2023-04-06T05:33:10.145Z,99.99
2023-04-06T05:34:10.078Z,99.99
2023-04-06T05:35:10.040Z,99.99
2023-04-06T05:36:10.030Z,99.99
2023-04-06T05:37:10.077Z,99.99
2023-04-06T05:38:10.018Z,99.99
2023-04-06T05:39:10.243Z,99.99
2023-04-06T05:40:12.975Z,99.99
2023-04-06T05:41:12.961Z,99.99
2023-04-06T05:42:09.997Z,99.99
2023-04-06T05:43:09.984Z,99.99
2023-04-06T05:44:09.921Z,99.99
2023-04-06T05:45:09.909Z,99.99
2023-04-06T05:46:09.949Z,99.99
2023-04-06T05:47:09.883Z,99.99
2023-04-06T05:48:09.904Z,99.99
2023-04-06T05:49:10.170Z,99.99
2023-04-06T05:50:09.837Z,99.99
2023-04-06T05:51:09.828Z,99.99
2023-04-06T05:52:09.810Z,99.99
2023-04-06T05:53:09.799Z,99.99
2023-04-06T05:54:09.781Z,99.99
2023-04-06T05:55:10.789Z,99.99
2023-04-06T05:56:09.760Z,99.99
2023-04-06T05:57:09.747Z,99.99
2023-04-06T05:58:09.729Z,99.99
2023-04-06T05:59:09.965Z,99.99
2023-04-06T06:00:12.760Z,99.99
2023-04-06T06:01:12.696Z,99.99
2023-04-06T06:02:09.749Z,99.99
2023-04-06T06:03:09.724Z,99.99
2023-04-06T06:04:09.662Z,99.99
2023-04-06T06:05:09.674Z,99.99
2023-04-06T06:06:09.692Z,99.99
2023-04-06T06:07:09.615Z,99.99
2023-04-06T06:08:09.596Z,99.99
2023-04-06T06:09:09.674Z,99.99
2023-04-06T06:10:09.574Z,99.99
2023-04-06T06:11:09.574Z,99.99
2023-04-06T06:12:10.170Z,99.99
2023-04-06T06:13:09.530Z,99.99
2023-04-06T06:14:09.521Z,99.99
2023-04-06T06:15:09.516Z,99.99
2023-04-06T06:16:09.511Z,99.99
2023-04-06T06:17:09.495Z,99.99
2023-04-06T06:18:09.580Z,99.99
2023-04-06T06:19:09.641Z,99.99
2023-04-06T06:20:12.457Z,99.99
2023-04-06T06:21:12.432Z,99.99
2023-04-06T06:22:09.439Z,99.99
2023-04-06T06:23:09.395Z,99.99
2023-04-06T06:24:09.457Z,99.99
2023-04-06T06:25:09.378Z,99.99
2023-04-06T06:26:09.360Z,99.99
2023-04-06T06:27:09.338Z,99.99
2023-04-06T06:28:09.343Z,99.99
2023-04-06T06:29:09.487Z,99.99
2023-04-06T06:30:09.350Z,99.99
2023-04-06T06:31:09.323Z,99.99
2023-04-06T06:32:09.300Z,99.99
2023-04-06T06:33:09.316Z,99.99
2023-04-06T06:34:09.249Z,99.99
2023-04-06T06:35:09.253Z,99.99
2023-04-06T06:36:09.261Z,99.99
2023-04-06T06:37:09.209Z,99.99
2023-04-06T06:38:09.232Z,99.99
2023-04-06T06:39:09.451Z,99.99
2023-04-06T06:40:12.184Z,99.99
2023-04-06T06:41:12.226Z,99.99
2023-04-06T06:42:09.184Z,99.99
2023-04-06T06:43:09.142Z,99.99
2023-04-06T06:44:09.363Z,99.99
2023-04-06T06:45:09.106Z,99.99
2023-04-06T06:46:09.148Z,99.99
2023-04-06T06:47:09.142Z,99.99
2023-04-06T06:48:09.111Z,99.99
2023-04-06T06:49:09.068Z,99.99
2023-04-06T06:50:09.076Z,99.99
2023-04-06T06:51:09.022Z,99.99
2023-04-06T06:52:09.056Z,99.99
2023-04-06T06:53:09.076Z,99.99
2023-04-06T06:54:09.307Z,99.99
2023-04-06T06:55:08.987Z,99.99
2023-04-06T06:56:08.978Z,99.99
2023-04-06T06:57:08.947Z,99.99
2023-04-06T06:58:08.936Z,99.99
2023-04-06T06:59:09.045Z,99.99
2023-04-06T07:00:13.099Z,99.99
2023-04-06T07:01:11.904Z,99.99
2023-04-06T07:02:08.908Z,99.99
2023-04-06T07:03:08.951Z,99.99
2023-04-06T07:04:09.159Z,99.99
2023-04-06T07:05:23.637Z,99.99
2023-04-06T07:06:09.825Z,99.99
2023-04-06T07:07:08.810Z,99.99
2023-04-06T07:08:08.796Z,99.99
2023-04-06T07:09:08.825Z,99.99
2023-04-06T07:10:08.802Z,99.99
2023-04-06T07:11:08.804Z,99.99
2023-04-06T07:12:08.748Z,99.99
2023-04-06T07:13:08.730Z,99.99
2023-04-06T07:14:09.115Z,99.99
2023-04-06T07:15:08.720Z,99.99
2023-04-06T07:16:08.997Z,99.99
2023-04-06T07:17:08.938Z,99.99
2023-04-06T07:18:08.814Z,99.99
2023-04-06T07:19:08.666Z,99.99
2023-04-06T07:20:11.878Z,99.99
2023-04-06T07:21:11.629Z,99.99
2023-04-06T07:22:08.643Z,99.99
2023-04-06T07:23:08.664Z,99.99
2023-04-06T07:24:08.930Z,99.99
2023-04-06T07:25:08.594Z,99.99
2023-04-06T07:26:08.598Z,99.99
2023-04-06T07:27:08.546Z,99.99
2023-04-06T07:28:08.528Z,99.99
2023-04-06T07:29:08.564Z,99.99
2023-04-06T07:30:08.516Z,99.99
2023-04-06T07:31:08.485Z,99.99
2023-04-06T07:32:08.529Z,99.99
2023-04-06T07:33:08.506Z,99.99
2023-04-06T07:34:08.663Z,99.99
2023-04-06T07:35:08.493Z,99.99
2023-04-06T07:36:08.508Z,99.99
2023-04-06T07:37:08.407Z,99.99
2023-04-06T07:38:08.416Z,99.99
2023-04-06T07:39:12.368Z,99.99
2023-04-06T07:40:11.419Z,99.99
2023-04-06T07:41:11.401Z,99.99
2023-04-06T07:42:08.343Z,99.99
2023-04-06T07:43:08.349Z,99.99
2023-04-06T07:44:08.515Z,99.99
2023-04-06T07:45:08.304Z,99.99
2023-04-06T07:46:08.344Z,99.99
2023-04-06T07:47:08.272Z,99.99
2023-04-06T07:48:08.377Z,99.99
2023-04-06T07:49:08.246Z,99.99
2023-04-06T07:50:08.233Z,99.99
2023-04-06T07:51:08.218Z,99.99
2023-04-06T07:52:08.268Z,99.99
2023-04-06T07:53:08.215Z,99.99
2023-04-06T07:54:08.375Z,99.99
2023-04-06T07:55:08.159Z,99.99
2023-04-06T07:56:08.158Z,99.99
2023-04-06T07:57:08.197Z,99.99
2023-04-06T07:58:08.187Z,99.99
2023-04-06T07:59:08.149Z,99.99
2023-04-06T08:00:11.101Z,99.99
2023-04-06T08:01:11.100Z,99.99
2023-04-06T08:02:08.115Z,99.99
2023-04-06T08:03:08.237Z,99.99
2023-04-06T08:04:08.539Z,99.99
2023-04-06T08:05:08.041Z,99.99
2023-04-06T08:06:08.016Z,99.99
2023-04-06T08:07:07.993Z,99.99
2023-04-06T08:08:08.009Z,99.99
2023-04-06T08:09:07.968Z,99.99
2023-04-06T08:10:08.015Z,99.99
2023-04-06T08:11:07.951Z,99.99
2023-04-06T08:12:07.938Z,99.99
2023-04-06T08:13:07.916Z,99.99
2023-04-06T08:14:08.217Z,99.99
2023-04-06T08:15:07.893Z,99.99
2023-04-06T08:16:07.947Z,99.99
2023-04-06T08:17:07.897Z,99.99
2023-04-06T08:18:07.854Z,99.99
2023-04-06T08:19:07.843Z,99.99
2023-04-06T08:20:10.837Z,99.99
2023-04-06T08:21:10.870Z,99.99
2023-04-06T08:22:07.796Z,99.99
2023-04-06T08:23:07.830Z,99.99
2023-04-06T08:24:08.026Z,99.99
2023-04-06T08:25:07.757Z,99.99
2023-04-06T08:26:07.755Z,99.99
2023-04-06T08:27:07.783Z,99.99
2023-04-06T08:28:07.716Z,99.99
2023-04-06T08:29:07.716Z,99.99
2023-04-06T08:30:07.696Z,99.99
2023-04-06T08:31:07.773Z,99.99
2023-04-06T08:32:07.674Z,99.99
2023-04-06T08:33:07.786Z,99.99
2023-04-06T08:34:08.553Z,99.99
2023-04-06T08:35:07.634Z,99.99
2023-04-06T08:36:07.640Z,99.99
2023-04-06T08:37:07.669Z,99.99
2023-04-06T08:38:07.594Z,99.99
2023-04-06T08:39:07.628Z,99.99
2023-04-06T08:40:10.571Z,99.99
2023-04-06T08:41:10.555Z,99.99
2023-04-06T08:42:07.529Z,99.99
2023-04-06T08:43:07.519Z,99.99
2023-04-06T08:44:07.672Z,99.99
2023-04-06T08:45:07.552Z,99.99
2023-04-06T08:46:07.488Z,99.99
2023-04-06T08:47:07.474Z,99.99
2023-04-06T08:48:07.530Z,99.99
2023-04-06T08:49:07.457Z,99.99
2023-04-06T08:50:07.497Z,99.99
2023-04-06T08:51:07.469Z,99.99
2023-04-06T08:52:07.402Z,99.99
2023-04-06T08:53:07.398Z,99.99
2023-04-06T08:54:07.690Z,99.99
2023-04-06T08:55:07.363Z,99.99
2023-04-06T08:56:07.350Z,99.99
2023-04-06T08:57:07.391Z,99.99
2023-04-06T08:58:07.312Z,99.99
2023-04-06T08:59:07.451Z,99.99
2023-04-06T09:00:10.298Z,99.99
2023-04-06T09:01:10.439Z,99.99
2023-04-06T09:02:07.375Z,99.99
2023-04-06T09:03:07.499Z,99.99
2023-04-06T09:04:09.233Z,99.99
2023-04-06T09:05:08.183Z,99.99
2023-04-06T09:06:07.211Z,99.99
2023-04-06T09:07:07.190Z,99.99
2023-04-06T09:08:07.208Z,99.99
2023-04-06T09:09:07.215Z,99.99
2023-04-06T09:10:07.163Z,99.99
2023-04-06T09:11:07.138Z,99.99
2023-04-06T09:12:07.127Z,99.99
2023-04-06T09:13:07.108Z,99.99
2023-04-06T09:14:07.317Z,99.99
2023-04-06T09:15:07.146Z,99.99
2023-04-06T09:16:07.186Z,99.99
2023-04-06T09:17:07.091Z,99.99
2023-04-06T09:18:07.120Z,99.99
2023-04-06T09:19:07.054Z,99.99
2023-04-06T09:20:10.062Z,99.99
2023-04-06T09:21:10.009Z,99.99
2023-04-06T09:22:07.000Z,99.99
2023-04-06T09:23:06.979Z,99.99
2023-04-06T09:24:07.286Z,99.99
2023-04-06T09:25:06.983Z,99.99
2023-04-06T09:26:07.031Z,99.99
2023-04-06T09:27:06.990Z,99.99
2023-04-06T09:28:06.958Z,99.99
2023-04-06T09:29:06.957Z,99.99
2023-04-06T09:30:06.894Z,99.99
2023-04-06T09:31:06.899Z,99.99
2023-04-06T09:32:06.956Z,99.99
2023-04-06T09:33:06.897Z,99.99
2023-04-06T09:34:07.293Z,99.99
2023-04-06T09:35:06.829Z,99.99
2023-04-06T09:36:06.806Z,99.99
2023-04-06T09:37:06.813Z,99.99
2023-04-06T09:38:06.849Z,99.99
2023-04-06T09:39:06.780Z,99.99
2023-04-06T09:40:09.767Z,99.99
2023-04-06T09:41:09.758Z,99.99
2023-04-06T09:42:06.726Z,99.99
2023-04-06T09:43:06.714Z,99.99
2023-04-06T09:44:07.028Z,99.99
2023-04-06T09:45:06.696Z,99.99
2023-04-06T09:46:06.677Z,99.99
2023-04-06T09:47:06.717Z,99.99
2023-04-06T09:48:06.681Z,99.99
2023-04-06T09:49:06.874Z,99.99
2023-04-06T09:50:06.694Z,99.99
2023-04-06T09:51:06.614Z,99.99
2023-04-06T09:52:06.605Z,99.99
2023-04-06T09:53:06.598Z,99.99
2023-04-06T09:54:06.724Z,99.99
2023-04-06T09:55:06.575Z,99.99
2023-04-06T09:56:06.607Z,99.99
2023-04-06T09:57:06.571Z,99.99
2023-04-06T09:58:06.543Z,99.99
2023-04-06T09:59:06.629Z,99.99
2023-04-06T10:00:09.494Z,99.99
2023-04-06T10:01:09.543Z,99.99
2023-04-06T10:02:06.472Z,99.99
2023-04-06T10:03:09.122Z,99.99
2023-04-06T10:04:06.597Z,99.99
2023-04-06T10:05:06.423Z,99.99
2023-04-06T10:06:06.420Z,99.99
2023-04-06T10:07:06.427Z,99.99
2023-04-06T10:08:06.383Z,99.99
2023-04-06T10:09:06.430Z,99.99
2023-04-06T10:10:06.352Z,99.99
2023-04-06T10:11:06.373Z,99.99
2023-04-06T10:12:06.350Z,99.99
2023-04-06T10:13:06.322Z,99.99
2023-04-06T10:14:06.606Z,99.99
2023-04-06T10:15:06.304Z,99.99
2023-04-06T10:16:06.281Z,99.99
2023-04-06T10:17:06.266Z,99.99
2023-04-06T10:18:06.300Z,99.99
2023-04-06T10:19:06.218Z,99.99
2023-04-06T10:20:09.242Z,99.99
2023-04-06T10:21:09.201Z,99.99
2023-04-06T10:22:06.227Z,99.99
2023-04-06T10:23:06.177Z,99.99
2023-04-06T10:24:06.252Z,99.99
2023-04-06T10:25:06.170Z,99.99
2023-04-06T10:26:06.126Z,99.99
2023-04-06T10:27:06.137Z,99.99
2023-04-06T10:28:06.107Z,99.99
2023-04-06T10:29:06.142Z,99.99
2023-04-06T10:30:06.134Z,99.99
2023-04-06T10:31:06.054Z,99.99
2023-04-06T10:32:06.144Z,99.99
2023-04-06T10:33:06.057Z,99.99
2023-04-06T10:34:06.087Z,99.99
2023-04-06T10:35:06.056Z,99.99
2023-04-06T10:36:05.991Z,99.99
2023-04-06T10:37:05.975Z,99.69
2023-04-06T10:38:05.971Z,99.49
2023-04-06T10:39:05.952Z,99.99
2023-04-06T10:40:08.992Z,99.99
2023-04-06T10:41:08.925Z,99.44
2023-04-06T10:42:05.916Z,99.65
2023-04-06T10:43:05.908Z,99.99
2023-04-06T10:44:05.937Z,98.32
2023-04-06T10:45:05.871Z,97.96
2023-04-06T10:46:05.944Z,97.24
2023-04-06T10:47:05.836Z,99.99
2023-04-06T10:48:05.857Z,98.88
2023-04-06T10:49:05.815Z,99.18
2023-04-06T10:50:05.794Z,99.99
2023-04-06T10:51:05.836Z,99.24
2023-04-06T10:52:05.777Z,99.54
2023-04-06T10:53:05.760Z,99.99
2023-04-06T10:54:05.753Z,99.99
2023-04-06T10:55:05.735Z,97.40
2023-04-06T10:56:05.713Z,99.99
2023-04-06T10:57:05.740Z,99.99
2023-04-06T10:58:05.702Z,99.60
2023-04-06T10:59:05.717Z,99.99
2023-04-06T11:00:10.731Z,99.99
2023-04-06T11:01:08.663Z,99.96
2023-04-06T11:02:05.652Z,97.31
2023-04-06T11:03:05.709Z,96.60
2023-04-06T11:04:05.726Z,97.21
2023-04-06T11:05:05.598Z,98.18
2023-04-06T11:06:05.581Z,94.82
2023-04-06T11:07:05.592Z,95.28
2023-04-06T11:08:05.545Z,95.07
2023-04-06T11:09:05.545Z,96.19
2023-04-06T11:10:15.573Z,95.64
2023-04-06T11:11:06.538Z,94.52
2023-04-06T11:12:05.561Z,94.72
2023-04-06T11:13:05.491Z,93.90
2023-04-06T11:14:05.474Z,94.21
2023-04-06T11:15:05.467Z,94.92
2023-04-06T11:16:05.437Z,93.40
2023-04-06T11:17:05.497Z,94.01
2023-04-06T11:18:05.527Z,93.70
2023-04-06T11:19:05.435Z,93.60
2023-04-06T11:20:08.395Z,93.74
2023-04-06T11:21:08.380Z,94.62
2023-04-06T11:22:05.364Z,92.89
2023-04-06T11:23:05.349Z,92.07
2023-04-06T11:24:05.373Z,92.58
2023-04-06T11:25:05.328Z,91.56
2023-04-06T11:26:05.304Z,91.71
2023-04-06T11:27:05.299Z,92.18
2023-04-06T11:28:05.270Z,92.58
2023-04-06T11:29:05.273Z,92.11
2023-04-06T11:30:05.315Z,92.89
2023-04-06T11:31:05.300Z,93.70
2023-04-06T11:32:05.237Z,92.99
2023-04-06T11:33:05.254Z,93.66
2023-04-06T11:34:05.198Z,91.93
2023-04-06T11:35:05.183Z,91.01
2023-04-06T11:36:05.212Z,90.66
2023-04-06T11:37:05.197Z,89.99
2023-04-06T11:38:05.139Z,88.73
2023-04-06T11:39:05.128Z,90.46
2023-04-06T11:40:08.134Z,91.38
2023-04-06T11:41:08.112Z,89.85
2023-04-06T11:42:07.575Z,89.24
2023-04-06T11:43:05.071Z,90.16
2023-04-06T11:44:05.059Z,89.89
2023-04-06T11:45:05.067Z,92.03
2023-04-06T11:46:05.065Z,93.10
2023-04-06T11:47:05.093Z,91.48
2023-04-06T11:48:05.052Z,89.34
2023-04-06T11:49:05.028Z,88.83
2023-04-06T11:50:04.989Z,89.54
2023-04-06T11:51:04.973Z,90.16
2023-04-06T11:52:04.953Z,89.24
2023-04-06T11:53:05.001Z,89.50
2023-04-06T11:54:04.932Z,89.70
2023-04-06T11:55:04.911Z,91.13
2023-04-06T11:56:04.908Z,93.43
2023-04-06T11:57:04.892Z,92.41
2023-04-06T11:58:04.897Z,89.87
2023-04-06T11:59:04.933Z,88.65
2023-04-06T12:00:07.844Z,88.75
2023-04-06T12:01:07.845Z,87.47
2023-04-06T12:02:04.808Z,89.91
2023-04-06T12:03:04.883Z,89.61
2023-04-06T12:04:04.940Z,91.03
2023-04-06T12:05:05.479Z,90.01
2023-04-06T12:06:04.763Z,89.61
2023-04-06T12:07:04.763Z,89.61
2023-04-06T12:08:04.761Z,90.11
2023-04-06T12:09:04.762Z,90.72
2023-04-06T12:10:04.895Z,90.83
2023-04-06T12:11:04.706Z,91.13
2023-04-06T12:12:04.700Z,88.79
2023-04-06T12:13:05.346Z,89.81
2023-04-06T12:14:04.669Z,86.80
2023-04-06T12:15:04.663Z,87.10
2023-04-06T12:16:04.725Z,87.81
2023-04-06T12:17:04.622Z,86.35
2023-04-06T12:18:04.666Z,88.39
2023-04-06T12:19:04.624Z,89.70
2023-04-06T12:20:22.123Z,88.04
2023-04-06T12:21:08.600Z,90.17
2023-04-06T12:22:04.609Z,87.89
2023-04-06T12:23:04.571Z,85.76
2023-04-06T12:24:04.518Z,88.20
2023-04-06T12:25:04.521Z,87.59
2023-04-06T12:26:04.494Z,87.79
2023-04-06T12:27:10.144Z,87.29
2023-04-06T12:28:05.501Z,85.66
2023-04-06T12:29:04.444Z,85.76
2023-04-06T12:30:04.449Z,84.23
2023-04-06T12:31:04.451Z,85.49
2023-04-06T12:32:04.425Z,87.53
2023-04-06T12:33:04.475Z,87.79
2023-04-06T12:34:04.443Z,87.59
2023-04-06T12:35:04.367Z,86.77
2023-04-06T12:36:04.352Z,85.49
2023-04-06T12:37:04.377Z,86.41
2023-04-06T12:38:04.319Z,84.38
2023-04-06T12:39:04.366Z,85.29
2023-04-06T12:40:07.311Z,86.82
2023-04-06T12:41:07.286Z,88.20
2023-04-06T12:42:04.272Z,86.07
2023-04-06T12:43:04.253Z,83.22
2023-04-06T12:44:04.248Z,83.12
2023-04-06T12:45:04.289Z,86.37
2023-04-06T12:46:04.207Z,83.62
2023-04-06T12:47:04.233Z,84.03
2023-04-06T12:48:04.221Z,83.53
2023-04-06T12:49:04.205Z,84.54
2023-04-06T12:50:04.159Z,81.53
2023-04-06T12:51:04.167Z,84.68
2023-04-06T12:52:04.128Z,85.70